This is the latest recevied weather packets stored in our database for station/object K5EAA-13. If no packets are shown the sender has not sent any weather packets the latest 10 day(s).
| Time | Temp. | Humidity | Pressure | Rain* | Wind** | Luminosity | Snow |
|---|---|---|---|---|---|---|---|
| 1787776823 | 36.67° C | 33% | 1013.2 hPa | 0 mm | - | 244 W/m² | - |
| 1787776522 | 36.67° C | 38% | 1013.2 hPa | 0 mm | - | 239 W/m² | - |
| 1787776220 | 36.67° C | 39% | 1013.3 hPa | 0 mm | - | 216 W/m² | - |
| 1787775914 | 36.67° C | 40% | 1013.3 hPa | 0 mm | - | 200 W/m² | - |
| 1787775609 | 36.67° C | 38% | 1013.2 hPa | 0 mm | - | 200 W/m² | - |
| 1787775308 | 36.11° C | 40% | 1013.3 hPa | 0 mm | - | 192 W/m² | - |
| 1787775002 | 36.11° C | 40% | 1013.3 hPa | 0 mm | - | 188 W/m² | - |
| 1787774701 | 36.11° C | 40% | 1013.3 hPa | 0 mm | - | 188 W/m² | - |
| 1787774400 | 36.11° C | 40% | 1013.3 hPa | 0 mm | - | 193 W/m² | - |
| 1787774095 | 36.67° C | 40% | 1013.3 hPa | 0 mm | - | 195 W/m² | - |
| 1787773794 | 36.67° C | 40% | 1013.4 hPa | 0 mm | - | 197 W/m² | - |
| 1787773488 | 37.22° C | 38% | 1013.1 hPa | 0 mm | - | 210 W/m² | - |
| 1787773185 | 37.78° C | 32% | 1013.4 hPa | 0 mm | - | 227 W/m² | - |
| 1787772879 | 37.78° C | 32% | 1013.5 hPa | 0 mm | - | 242 W/m² | - |
| 1787772580 | 37.78° C | 33% | 1013.3 hPa | 0 mm | - | 249 W/m² | - |
| 1787772279 | 37.78° C | 33% | 1013.3 hPa | 0 mm | - | 248 W/m² | - |
| 1787771977 | 38.33° C | 33% | 1013.6 hPa | 0 mm | - | 295 W/m² | - |
| 1787771673 | 38.33° C | 33% | 1013.5 hPa | 0 mm | - | 454 W/m² | - |
| 1787771367 | 38.33° C | 34% | 1013.7 hPa | 0 mm | - | 392 W/m² | - |
| 1787771067 | 38.33° C | 33% | 1013.6 hPa | 0 mm | - | 510 W/m² | - |
| 1787770766 | 38.33° C | 34% | 1013.7 hPa | 0 mm | - | 499 W/m² | - |
| 1787757085 | 32.78° C | 47% | 1014.4 hPa | 0 mm | - | 430 W/m² | - |
| 1787756784 | 32.78° C | 47% | 1014.4 hPa | 0 mm | - | 430 W/m² | - |
| 1787756480 | 32.78° C | 47% | 1014.5 hPa | 0 mm | - | 397 W/m² | - |
| 1787756178 | 32.22° C | 48% | 1014.3 hPa | 0 mm | - | 400 W/m² | - |
* Rain latest hour (hover to see other rain measurements)
** Current wind speed in m/s (hover to see current wind gust speed)